sensor_id;sensor_type;location;lat;lon;timestamp;pressure;altitude;pressure_sealevel;temperature;humidity
12475;BME280;6302;42.624;23.334;2023-05-21T00:02:22;93192.56;;;14.40;100.00
12475;BME280;6302;42.624;23.334;2023-05-21T00:04:48;93181.66;;;14.34;100.00
12475;BME280;6302;42.624;23.334;2023-05-21T00:07:15;93182.09;;;14.33;100.00
12475;BME280;6302;42.624;23.334;2023-05-21T00:09:43;93182.41;;;14.35;100.00
12475;BME280;6302;42.624;23.334;2023-05-21T00:12:09;93182.03;;;14.37;100.00
12475;BME280;6302;42.624;23.334;2023-05-21T00:14:38;93184.25;;;14.38;100.00
12475;BME280;6302;42.624;23.334;2023-05-21T00:17:04;93179.94;;;14.44;100.00
12475;BME280;6302;42.624;23.334;2023-05-21T00:19:31;93178.09;;;14.41;100.00
12475;BME280;6302;42.624;23.334;2023-05-21T00:21:58;93177.78;;;14.39;100.00
12475;BME280;6302;42.624;23.334;2023-05-21T00:24:28;93175.84;;;14.40;100.00
12475;BME280;6302;42.624;23.334;2023-05-21T00:26:55;93168.25;;;14.38;100.00
12475;BME280;6302;42.624;23.334;2023-05-21T00:29:22;93169.03;;;14.39;100.00
12475;BME280;6302;42.624;23.334;2023-05-21T00:31:50;93176.59;;;14.40;100.00
12475;BME280;6302;42.624;23.334;2023-05-21T00:34:17;93167.44;;;14.41;100.00
12475;BME280;6302;42.624;23.334;2023-05-21T00:36:44;93172.84;;;14.38;100.00
12475;BME280;6302;42.624;23.334;2023-05-21T00:39:11;93165.16;;;14.40;100.00
12475;BME280;6302;42.624;23.334;2023-05-21T00:41:38;93170.84;;;14.42;100.00
12475;BME280;6302;42.624;23.334;2023-05-21T00:44:07;93168.59;;;14.40;100.00
12475;BME280;6302;42.624;23.334;2023-05-21T00:46:34;93169.78;;;14.39;100.00
12475;BME280;6302;42.624;23.334;2023-05-21T00:49:03;93156.78;;;14.41;100.00
12475;BME280;6302;42.624;23.334;2023-05-21T00:51:31;93163.59;;;14.42;100.00
12475;BME280;6302;42.624;23.334;2023-05-21T00:53:58;93166.59;;;14.44;100.00
12475;BME280;6302;42.624;23.334;2023-05-21T00:56:26;93164.75;;;14.41;100.00
12475;BME280;6302;42.624;23.334;2023-05-21T00:58:53;93158.09;;;14.33;100.00
12475;BME280;6302;42.624;23.334;2023-05-21T01:01:21;93152.78;;;14.33;100.00
12475;BME280;6302;42.624;23.334;2023-05-21T01:03:50;93158.16;;;14.29;100.00
12475;BME280;6302;42.624;23.334;2023-05-21T01:06:18;93154.75;;;14.29;100.00
12475;BME280;6302;42.624;23.334;2023-05-21T01:08:45;93152.81;;;14.29;100.00
12475;BME280;6302;42.624;23.334;2023-05-21T01:11:12;93154.69;;;14.32;100.00
12475;BME280;6302;42.624;23.334;2023-05-21T01:13:41;93144.78;;;14.33;100.00
12475;BME280;6302;42.624;23.334;2023-05-21T01:16:08;93144.03;;;14.32;100.00
12475;BME280;6302;42.624;23.334;2023-05-21T01:18:37;93136.44;;;14.31;100.00
12475;BME280;6302;42.624;23.334;2023-05-21T01:21:09;93141.78;;;14.31;100.00
12475;BME280;6302;42.624;23.334;2023-05-21T01:23:37;93141.44;;;14.29;100.00
12475;BME280;6302;42.624;23.334;2023-05-21T01:26:04;93142.25;;;14.26;100.00
12475;BME280;6302;42.624;23.334;2023-05-21T01:28:31;93142.00;;;14.20;100.00
12475;BME280;6302;42.624;23.334;2023-05-21T01:31:01;93142.50;;;14.15;100.00
12475;BME280;6302;42.624;23.334;2023-05-21T01:33:34;93132.34;;;14.10;100.00
12475;BME280;6302;42.624;23.334;2023-05-21T01:36:08;93130.75;;;14.13;100.00
12475;BME280;6302;42.624;23.334;2023-05-21T01:38:44;93126.63;;;14.12;100.00
12475;BME280;6302;42.624;23.334;2023-05-21T01:41:16;93123.53;;;14.13;100.00
12475;BME280;6302;42.624;23.334;2023-05-21T01:43:45;93131.69;;;14.06;100.00
12475;BME280;6302;42.624;23.334;2023-05-21T01:46:16;93122.69;;;14.00;100.00
12475;BME280;6302;42.624;23.334;2023-05-21T01:48:43;93136.34;;;14.02;100.00
12475;BME280;6302;42.624;23.334;2023-05-21T01:51:10;93132.84;;;14.05;100.00
12475;BME280;6302;42.624;23.334;2023-05-21T01:53:37;93127.13;;;14.07;100.00
12475;BME280;6302;42.624;23.334;2023-05-21T01:56:06;93129.34;;;14.08;100.00
12475;BME280;6302;42.624;23.334;2023-05-21T01:58:33;93133.94;;;14.08;100.00
12475;BME280;6302;42.624;23.334;2023-05-21T02:01:00;93130.94;;;14.06;100.00
12475;BME280;6302;42.624;23.334;2023-05-21T02:03:28;93125.44;;;13.97;100.00
12475;BME280;6302;42.624;23.334;2023-05-21T02:05:56;93128.13;;;13.97;100.00
12475;BME280;6302;42.624;23.334;2023-05-21T02:08:22;93123.63;;;13.94;100.00
12475;BME280;6302;42.624;23.334;2023-05-21T02:10:49;93124.38;;;13.94;100.00
12475;BME280;6302;42.624;23.334;2023-05-21T02:13:18;93128.19;;;13.93;100.00
12475;BME280;6302;42.624;23.334;2023-05-21T02:15:46;93127.09;;;13.91;100.00
12475;BME280;6302;42.624;23.334;2023-05-21T02:18:13;93119.59;;;13.86;100.00
12475;BME280;6302;42.624;23.334;2023-05-21T02:20:41;93122.75;;;13.81;100.00
12475;BME280;6302;42.624;23.334;2023-05-21T02:23:08;93120.94;;;13.78;100.00
12475;BME280;6302;42.624;23.334;2023-05-21T02:25:35;93112.59;;;13.76;100.00
12475;BME280;6302;42.624;23.334;2023-05-21T02:28:02;93117.94;;;13.76;100.00
12475;BME280;6302;42.624;23.334;2023-05-21T02:30:30;93119.50;;;13.73;100.00
12475;BME280;6302;42.624;23.334;2023-05-21T02:32:57;93115.09;;;13.66;100.00
12475;BME280;6302;42.624;23.334;2023-05-21T02:35:25;93104.63;;;13.59;100.00
12475;BME280;6302;42.624;23.334;2023-05-21T02:37:52;93111.53;;;13.57;100.00
12475;BME280;6302;42.624;23.334;2023-05-21T02:40:23;93109.25;;;13.55;100.00
12475;BME280;6302;42.624;23.334;2023-05-21T02:42:50;93107.84;;;13.51;100.00
12475;BME280;6302;42.624;23.334;2023-05-21T02:45:17;93106.75;;;13.48;100.00
12475;BME280;6302;42.624;23.334;2023-05-21T02:47:45;93109.41;;;13.48;100.00
12475;BME280;6302;42.624;23.334;2023-05-21T02:50:12;93113.91;;;13.51;100.00
12475;BME280;6302;42.624;23.334;2023-05-21T02:52:39;93107.13;;;13.50;100.00
12475;BME280;6302;42.624;23.334;2023-05-21T02:55:07;93112.00;;;13.52;100.00
12475;BME280;6302;42.624;23.334;2023-05-21T02:57:35;93116.16;;;13.53;100.00
12475;BME280;6302;42.624;23.334;2023-05-21T03:00:02;93107.78;;;13.54;100.00
12475;BME280;6302;42.624;23.334;2023-05-21T03:02:30;93112.00;;;13.52;100.00
12475;BME280;6302;42.624;23.334;2023-05-21T03:04:58;93114.59;;;13.55;100.00
12475;BME280;6302;42.624;23.334;2023-05-21T03:07:25;93107.63;;;13.61;100.00
12475;BME280;6302;42.624;23.334;2023-05-21T03:09:52;93115.59;;;13.61;100.00
12475;BME280;6302;42.624;23.334;2023-05-21T03:12:18;93116.63;;;13.67;100.00
12475;BME280;6302;42.624;23.334;2023-05-21T03:14:45;93125.25;;;13.72;100.00
12475;BME280;6302;42.624;23.334;2023-05-21T03:17:12;93115.78;;;13.70;100.00
12475;BME280;6302;42.624;23.334;2023-05-21T03:19:40;93122.44;;;13.79;100.00
12475;BME280;6302;42.624;23.334;2023-05-21T03:22:09;93126.94;;;13.82;100.00
12475;BME280;6302;42.624;23.334;2023-05-21T03:24:36;93127.59;;;13.86;100.00
12475;BME280;6302;42.624;23.334;2023-05-21T03:27:03;93122.28;;;13.86;100.00
12475;BME280;6302;42.624;23.334;2023-05-21T03:29:31;93124.09;;;13.89;100.00
12475;BME280;6302;42.624;23.334;2023-05-21T03:31:59;93131.66;;;13.90;100.00
12475;BME280;6302;42.624;23.334;2023-05-21T03:34:26;93124.38;;;13.94;100.00
12475;BME280;6302;42.624;23.334;2023-05-21T03:36:53;93131.09;;;13.99;100.00
12475;BME280;6302;42.624;23.334;2023-05-21T03:39:21;93128.78;;;14.01;100.00
12475;BME280;6302;42.624;23.334;2023-05-21T03:41:48;93131.69;;;14.06;100.00
12475;BME280;6302;42.624;23.334;2023-05-21T03:44:14;93134.75;;;14.05;100.00
12475;BME280;6302;42.624;23.334;2023-05-21T03:46:41;93133.09;;;14.11;100.00
12475;BME280;6302;42.624;23.334;2023-05-21T03:49:09;93137.59;;;14.14;100.00
12475;BME280;6302;42.624;23.334;2023-05-21T03:51:36;93136.28;;;14.22;100.00
12475;BME280;6302;42.624;23.334;2023-05-21T03:54:03;93125.25;;;14.20;100.00
12475;BME280;6302;42.624;23.334;2023-05-21T03:56:32;93124.09;;;14.21;100.00
12475;BME280;6302;42.624;23.334;2023-05-21T03:58:58;93128.94;;;14.26;100.00
12475;BME280;6302;42.624;23.334;2023-05-21T04:01:25;93133.50;;;14.25;100.00
12475;BME280;6302;42.624;23.334;2023-05-21T04:03:53;93129.53;;;14.33;100.00
12475;BME280;6302;42.624;23.334;2023-05-21T04:06:20;93131.59;;;14.42;100.00
12475;BME280;6302;42.624;23.334;2023-05-21T04:08:47;93127.75;;;14.43;100.00
12475;BME280;6302;42.624;23.334;2023-05-21T04:11:13;93137.41;;;14.53;100.00
12475;BME280;6302;42.624;23.334;2023-05-21T04:13:42;93137.31;;;14.57;100.00
12475;BME280;6302;42.624;23.334;2023-05-21T04:16:08;93139.06;;;14.63;100.00
12475;BME280;6302;42.624;23.334;2023-05-21T04:18:38;93143.00;;;14.59;100.00
12475;BME280;6302;42.624;23.334;2023-05-21T04:21:05;93139.06;;;14.63;100.00
12475;BME280;6302;42.624;23.334;2023-05-21T04:23:32;93142.38;;;14.67;100.00
12475;BME280;6302;42.624;23.334;2023-05-21T04:26:01;93141.53;;;14.70;100.00
12475;BME280;6302;42.624;23.334;2023-05-21T04:28:28;93139.84;;;14.76;100.00
12475;BME280;6302;42.624;23.334;2023-05-21T04:30:56;93149.47;;;14.74;100.00
12475;BME280;6302;42.624;23.334;2023-05-21T04:33:23;93148.84;;;14.82;100.00
12475;BME280;6302;42.624;23.334;2023-05-21T04:35:50;93140.31;;;14.87;100.00
12475;BME280;6302;42.624;23.334;2023-05-21T04:38:18;93143.63;;;14.91;100.00
12475;BME280;6302;42.624;23.334;2023-05-21T04:40:45;93139.72;;;14.96;100.00
12475;BME280;6302;42.624;23.334;2023-05-21T04:43:12;93150.63;;;15.02;100.00
12475;BME280;6302;42.624;23.334;2023-05-21T04:45:41;93145.84;;;15.09;100.00
12475;BME280;6302;42.624;23.334;2023-05-21T04:48:09;93153.44;;;15.11;100.00
12475;BME280;6302;42.624;23.334;2023-05-21T04:50:36;93143.84;;;15.26;100.00
12475;BME280;6302;42.624;23.334;2023-05-21T04:53:03;93150.16;;;15.32;100.00
12475;BME280;6302;42.624;23.334;2023-05-21T04:55:29;93151.78;;;15.42;100.00
12475;BME280;6302;42.624;23.334;2023-05-21T04:57:58;93146.72;;;15.60;100.00
12475;BME280;6302;42.624;23.334;2023-05-21T05:00:25;93137.09;;;15.63;100.00
12475;BME280;6302;42.624;23.334;2023-05-21T05:02:52;93143.84;;;15.67;100.00
12475;BME280;6302;42.624;23.334;2023-05-21T05:05:20;93148.13;;;15.77;100.00
12475;BME280;6302;42.624;23.334;2023-05-21T05:07:46;93153.56;;;15.86;100.00
12475;BME280;6302;42.624;23.334;2023-05-21T05:10:13;93141.56;;;15.91;100.00
12475;BME280;6302;42.624;23.334;2023-05-21T05:12:40;93147.47;;;15.98;100.00
12475;BME280;6302;42.624;23.334;2023-05-21T05:15:08;93145.41;;;16.02;100.00
12475;BME280;6302;42.624;23.334;2023-05-21T05:17:35;93144.78;;;16.11;100.00
12475;BME280;6302;42.624;23.334;2023-05-21T05:20:02;93154.59;;;16.26;100.00
12475;BME280;6302;42.624;23.334;2023-05-21T05:22:30;93151.16;;;16.39;100.00
12475;BME280;6302;42.624;23.334;2023-05-21T05:24:57;93148.34;;;16.55;100.00
12475;BME280;6302;42.624;23.334;2023-05-21T05:27:24;93157.19;;;16.64;100.00
12475;BME280;6302;42.624;23.334;2023-05-21T05:29:51;93156.84;;;16.75;100.00
12475;BME280;6302;42.624;23.334;2023-05-21T05:32:19;93160.66;;;16.86;100.00
12475;BME280;6302;42.624;23.334;2023-05-21T05:34:46;93159.94;;;16.86;100.00
12475;BME280;6302;42.624;23.334;2023-05-21T05:37:13;93155.25;;;16.99;100.00
12475;BME280;6302;42.624;23.334;2023-05-21T05:39:41;93145.19;;;17.03;100.00
12475;BME280;6302;42.624;23.334;2023-05-21T05:42:08;93150.28;;;17.10;100.00
12475;BME280;6302;42.624;23.334;2023-05-21T05:44:35;93155.41;;;17.17;100.00
12475;BME280;6302;42.624;23.334;2023-05-21T05:47:02;93153.84;;;17.29;100.00
12475;BME280;6302;42.624;23.334;2023-05-21T05:49:33;93142.69;;;17.30;100.00
12475;BME280;6302;42.624;23.334;2023-05-21T05:52:00;93147.78;;;17.37;100.00
12475;BME280;6302;42.624;23.334;2023-05-21T05:54:27;93146.66;;;17.47;100.00
12475;BME280;6302;42.624;23.334;2023-05-21T05:56:55;93142.03;;;17.48;100.00
12475;BME280;6302;42.624;23.334;2023-05-21T05:59:22;93150.03;;;17.61;100.00
12475;BME280;6302;42.624;23.334;2023-05-21T06:01:48;93147.25;;;17.73;100.00
12475;BME280;6302;42.624;23.334;2023-05-21T06:04:15;93150.25;;;17.75;100.00
12475;BME280;6302;42.624;23.334;2023-05-21T06:06:42;93147.47;;;17.88;100.00
12475;BME280;6302;42.624;23.334;2023-05-21T06:09:09;93142.28;;;17.93;100.00
12475;BME280;6302;42.624;23.334;2023-05-21T06:11:36;93143.94;;;18.00;100.00
12475;BME280;6302;42.624;23.334;2023-05-21T06:14:04;93145.13;;;17.99;100.00
12475;BME280;6302;42.624;23.334;2023-05-21T06:16:31;93136.69;;;18.09;100.00
12475;BME280;6302;42.624;23.334;2023-05-21T06:18:58;93134.44;;;18.08;100.00
12475;BME280;6302;42.624;23.334;2023-05-21T06:21:25;93121.59;;;18.03;100.00
12475;BME280;6302;42.624;23.334;2023-05-21T06:23:52;93121.06;;;18.17;100.00
12475;BME280;6302;42.624;23.334;2023-05-21T06:26:18;93134.19;;;18.24;100.00
12475;BME280;6302;42.624;23.334;2023-05-21T06:28:46;93130.75;;;18.24;100.00
12475;BME280;6302;42.624;23.334;2023-05-21T06:31:14;93130.00;;;18.14;100.00
12475;BME280;6302;42.624;23.334;2023-05-21T06:33:41;93130.00;;;18.14;100.00
12475;BME280;6302;42.624;23.334;2023-05-21T06:36:08;93131.91;;;18.13;100.00
12475;BME280;6302;42.624;23.334;2023-05-21T06:38:35;93128.59;;;18.00;100.00
12475;BME280;6302;42.624;23.334;2023-05-21T06:41:02;93125.34;;;18.05;100.00
12475;BME280;6302;42.624;23.334;2023-05-21T06:43:29;93127.13;;;17.99;100.00
12475;BME280;6302;42.624;23.334;2023-05-21T06:45:56;93125.63;;;18.07;100.00
12475;BME280;6302;42.624;23.334;2023-05-21T06:48:24;93127.75;;;18.12;100.00
12475;BME280;6302;42.624;23.334;2023-05-21T06:50:51;93121.06;;;18.17;100.00
12475;BME280;6302;42.624;23.334;2023-05-21T06:53:18;93118.81;;;18.25;100.00
12475;BME280;6302;42.624;23.334;2023-05-21T06:55:44;93119.72;;;18.22;100.00
12475;BME280;6302;42.624;23.334;2023-05-21T06:58:12;93126.47;;;18.35;100.00
12475;BME280;6302;42.624;23.334;2023-05-21T07:00:38;93126.81;;;18.46;100.00
12475;BME280;6302;42.624;23.334;2023-05-21T07:03:05;93119.22;;;18.63;100.00
12475;BME280;6302;42.624;23.334;2023-05-21T07:05:33;93114.91;;;18.83;100.00
12475;BME280;6302;42.624;23.334;2023-05-21T07:08:00;93113.84;;;18.99;100.00
12475;BME280;6302;42.624;23.334;2023-05-21T07:10:27;93117.56;;;19.20;100.00
12475;BME280;6302;42.624;23.334;2023-05-21T07:12:54;93116.66;;;19.32;100.00
12475;BME280;6302;42.624;23.334;2023-05-21T07:15:21;93119.63;;;19.43;100.00
12475;BME280;6302;42.624;23.334;2023-05-21T07:17:47;93115.91;;;19.50;100.00
12475;BME280;6302;42.624;23.334;2023-05-21T07:20:14;93111.81;;;19.63;99.38
12475;BME280;6302;42.624;23.334;2023-05-21T07:22:42;93118.63;;;19.82;99.38
12475;BME280;6302;42.624;23.334;2023-05-21T07:25:09;93119.34;;;19.83;96.98
12475;BME280;6302;42.624;23.334;2023-05-21T07:27:36;93119.66;;;19.85;93.28
12475;BME280;6302;42.624;23.334;2023-05-21T07:30:03;93114.72;;;19.83;93.16
12475;BME280;6302;42.624;23.334;2023-05-21T07:32:30;93114.38;;;19.99;98.15
12475;BME280;6302;42.624;23.334;2023-05-21T07:34:59;93104.13;;;20.12;100.00
12475;BME280;6302;42.624;23.334;2023-05-21T07:37:27;93112.88;;;19.98;96.75
12475;BME280;6302;42.624;23.334;2023-05-21T07:39:55;93117.91;;;19.73;95.34
12475;BME280;6302;42.624;23.334;2023-05-21T07:42:23;93117.19;;;19.63;97.50
12475;BME280;6302;42.624;23.334;2023-05-21T07:44:49;93117.25;;;19.45;100.00
12475;BME280;6302;42.624;23.334;2023-05-21T07:47:17;93127.97;;;19.54;100.00
12475;BME280;6302;42.624;23.334;2023-05-21T07:49:43;93122.31;;;19.52;97.52
12475;BME280;6302;42.624;23.334;2023-05-21T07:52:10;93128.13;;;19.60;100.00
12475;BME280;6302;42.624;23.334;2023-05-21T07:54:37;93119.47;;;19.46;100.00
12475;BME280;6302;42.624;23.334;2023-05-21T07:57:05;93108.84;;;19.61;100.00
12475;BME280;6302;42.624;23.334;2023-05-21T07:59:32;93115.72;;;19.62;100.00
12475;BME280;6302;42.624;23.334;2023-05-21T08:01:59;93109.84;;;19.73;100.00
12475;BME280;6302;42.624;23.334;2023-05-21T08:04:25;93114.16;;;19.79;100.00
12475;BME280;6302;42.624;23.334;2023-05-21T08:06:52;93115.34;;;19.87;100.00
12475;BME280;6302;42.624;23.334;2023-05-21T08:09:19;93119.97;;;19.87;100.00
12475;BME280;6302;42.624;23.334;2023-05-21T08:11:46;93115.84;;;20.00;99.81
12475;BME280;6302;42.624;23.334;2023-05-21T08:14:14;93111.78;;;20.05;98.06
12475;BME280;6302;42.624;23.334;2023-05-21T08:16:41;93110.72;;;20.11;97.52
12475;BME280;6302;42.624;23.334;2023-05-21T08:19:09;93107.38;;;20.26;99.41
12475;BME280;6302;42.624;23.334;2023-05-21T08:21:36;93110.06;;;20.26;90.64
12475;BME280;6302;42.624;23.334;2023-05-21T08:24:02;93108.44;;;20.19;90.29
12475;BME280;6302;42.624;23.334;2023-05-21T08:26:29;93112.06;;;20.16;91.60
12475;BME280;6302;42.624;23.334;2023-05-21T08:28:56;93114.16;;;20.12;87.85
12475;BME280;6302;42.624;23.334;2023-05-21T08:31:24;93107.97;;;19.88;83.15
12475;BME280;6302;42.624;23.334;2023-05-21T08:33:52;93112.63;;;19.87;78.10
12475;BME280;6302;42.624;23.334;2023-05-21T08:36:20;93109.41;;;19.74;79.40
12475;BME280;6302;42.624;23.334;2023-05-21T08:38:48;93105.66;;;19.72;80.28
12475;BME280;6302;42.624;23.334;2023-05-21T08:41:15;93104.34;;;19.67;82.40
12475;BME280;6302;42.624;23.334;2023-05-21T08:43:45;93109.09;;;19.72;82.78
12475;BME280;6302;42.624;23.334;2023-05-21T08:46:13;93109.06;;;19.81;88.20
12475;BME280;6302;42.624;23.334;2023-05-21T08:48:44;93112.31;;;19.85;87.66
12475;BME280;6302;42.624;23.334;2023-05-21T08:51:12;93107.13;;;20.15;89.78
12475;BME280;6302;42.624;23.334;2023-05-21T08:53:39;93108.19;;;20.41;87.84
12475;BME280;6302;42.624;23.334;2023-05-21T08:56:06;93095.91;;;20.49;86.42
12475;BME280;6302;42.624;23.334;2023-05-21T08:58:34;93095.75;;;20.67;91.79
12475;BME280;6302;42.624;23.334;2023-05-21T09:01:02;93102.41;;;20.95;92.77
12475;BME280;6302;42.624;23.334;2023-05-21T09:03:30;93106.47;;;21.14;91.03
12475;BME280;6302;42.624;23.334;2023-05-21T09:05:59;93110.94;;;21.17;92.75
12475;BME280;6302;42.624;23.334;2023-05-21T09:08:30;93108.78;;;21.21;88.66
12475;BME280;6302;42.624;23.334;2023-05-21T09:10:59;93103.97;;;21.25;85.60
12475;BME280;6302;42.624;23.334;2023-05-21T09:13:29;93106.19;;;21.12;83.08
12475;BME280;6302;42.624;23.334;2023-05-21T09:15:57;93109.34;;;21.11;82.93
12475;BME280;6302;42.624;23.334;2023-05-21T09:18:24;93111.06;;;20.99;83.67
12475;BME280;6302;42.624;23.334;2023-05-21T09:20:52;93103.69;;;20.85;79.88
12475;BME280;6302;42.624;23.334;2023-05-21T09:23:22;93101.13;;;20.91;80.96
12475;BME280;6302;42.624;23.334;2023-05-21T09:25:48;93100.38;;;20.90;74.26
12475;BME280;6302;42.624;23.334;2023-05-21T09:28:17;93104.53;;;20.91;72.39
12475;BME280;6302;42.624;23.334;2023-05-21T09:30:45;93108.41;;;20.75;64.79
12475;BME280;6302;42.624;23.334;2023-05-21T09:33:23;93102.84;;;20.79;68.22
12475;BME280;6302;42.624;23.334;2023-05-21T09:35:50;93098.78;;;20.84;65.84
12475;BME280;6302;42.624;23.334;2023-05-21T09:38:17;93095.38;;;20.98;67.22
12475;BME280;6302;42.624;23.334;2023-05-21T09:40:48;93098.34;;;21.00;68.36
12475;BME280;6302;42.624;23.334;2023-05-21T09:43:15;93098.75;;;21.07;65.37
12475;BME280;6302;42.624;23.334;2023-05-21T09:45:52;93089.50;;;20.99;65.03
12475;BME280;6302;42.624;23.334;2023-05-21T09:48:33;93096.88;;;21.13;63.56
12475;BME280;6302;42.624;23.334;2023-05-21T09:51:08;93093.38;;;21.22;62.71
12475;BME280;6302;42.624;23.334;2023-05-21T09:53:35;93089.09;;;21.15;63.34
12475;BME280;6302;42.624;23.334;2023-05-21T09:56:04;93091.81;;;21.15;61.04
12475;BME280;6302;42.624;23.334;2023-05-21T09:58:31;93086.59;;;21.12;62.39
12475;BME280;6302;42.624;23.334;2023-05-21T10:00:59;93089.56;;;21.28;61.76
12475;BME280;6302;42.624;23.334;2023-05-21T10:03:26;93087.88;;;21.46;61.95
12475;BME280;6302;42.624;23.334;2023-05-21T10:05:54;93086.31;;;21.54;61.81
12475;BME280;6302;42.624;23.334;2023-05-21T10:08:30;93085.19;;;21.75;60.41
12475;BME280;6302;42.624;23.334;2023-05-21T10:11:02;93088.31;;;22.02;62.74
12475;BME280;6302;42.624;23.334;2023-05-21T10:13:30;93079.13;;;22.29;58.35
12475;BME280;6302;42.624;23.334;2023-05-21T10:16:00;93080.84;;;22.12;57.06
12475;BME280;6302;42.624;23.334;2023-05-21T10:18:28;93080.06;;;22.26;57.35
12475;BME280;6302;42.624;23.334;2023-05-21T10:20:56;93076.81;;;22.22;56.72
12475;BME280;6302;42.624;23.334;2023-05-21T10:23:24;93071.69;;;22.24;58.84
12475;BME280;6302;42.624;23.334;2023-05-21T10:25:52;93059.81;;;22.16;56.15
12475;BME280;6302;42.624;23.334;2023-05-21T10:28:23;93071.75;;;22.10;57.85
12475;BME280;6302;42.624;23.334;2023-05-21T10:30:50;93073.88;;;22.06;58.55
12475;BME280;6302;42.624;23.334;2023-05-21T10:33:19;93066.19;;;21.98;60.66
12475;BME280;6302;42.624;23.334;2023-05-21T10:35:48;93067.88;;;21.96;58.89
12475;BME280;6302;42.624;23.334;2023-05-21T10:38:18;93066.59;;;21.77;59.58
12475;BME280;6302;42.624;23.334;2023-05-21T10:40:45;93065.75;;;21.71;60.62
12475;BME280;6302;42.624;23.334;2023-05-21T10:43:29;93063.16;;;21.62;58.79
12475;BME280;6302;42.624;23.334;2023-05-21T10:46:31;93058.41;;;21.57;60.80
12475;BME280;6302;42.624;23.334;2023-05-21T10:49:25;93067.53;;;21.59;61.79
12475;BME280;6302;42.624;23.334;2023-05-21T10:52:02;93065.13;;;21.47;63.23
12475;BME280;6302;42.624;23.334;2023-05-21T10:54:47;93059.72;;;21.47;65.00
12475;BME280;6302;42.624;23.334;2023-05-21T10:57:30;93060.09;;;21.39;64.05
12475;BME280;6302;42.624;23.334;2023-05-21T11:00:01;93065.59;;;21.30;64.86
12475;BME280;6302;42.624;23.334;2023-05-21T11:02:29;93060.28;;;21.21;67.56
12475;BME280;6302;42.624;23.334;2023-05-21T11:04:59;93058.94;;;21.02;63.67
12475;BME280;6302;42.624;23.334;2023-05-21T11:07:50;93052.44;;;20.94;67.49
12475;BME280;6302;42.624;23.334;2023-05-21T11:10:29;93054.84;;;20.92;67.31
12475;BME280;6302;42.624;23.334;2023-05-21T11:13:11;93058.69;;;21.00;68.64
12475;BME280;6302;42.624;23.334;2023-05-21T11:16:08;93054.16;;;21.06;68.95
12475;BME280;6302;42.624;23.334;2023-05-21T11:18:57;93049.88;;;21.14;67.54
12475;BME280;6302;42.624;23.334;2023-05-21T11:21:28;93052.19;;;21.21;69.76
12475;BME280;6302;42.624;23.334;2023-05-21T11:23:58;93051.19;;;21.33;68.77
12475;BME280;6302;42.624;23.334;2023-05-21T11:26:27;93047.94;;;21.29;62.72
12475;BME280;6302;42.624;23.334;2023-05-21T11:29:06;93040.78;;;21.12;66.47
12475;BME280;6302;42.624;23.334;2023-05-21T11:31:35;93036.28;;;20.94;71.52
12475;BME280;6302;42.624;23.334;2023-05-21T11:34:09;93039.53;;;20.98;70.80
12475;BME280;6302;42.624;23.334;2023-05-21T11:36:37;93036.94;;;21.04;71.53
12475;BME280;6302;42.624;23.334;2023-05-21T11:39:08;93033.50;;;21.03;74.43
12475;BME280;6302;42.624;23.334;2023-05-21T11:41:52;93024.56;;;20.97;70.97
12475;BME280;6302;42.624;23.334;2023-05-21T11:44:36;93035.72;;;20.90;73.20
12475;BME280;6302;42.624;23.334;2023-05-21T11:47:06;93027.72;;;20.81;73.87
12475;BME280;6302;42.624;23.334;2023-05-21T11:49:35;93029.56;;;20.75;73.93
12475;BME280;6302;42.624;23.334;2023-05-21T11:52:03;93030.22;;;20.70;74.82
12475;BME280;6302;42.624;23.334;2023-05-21T11:54:30;93023.63;;;20.71;77.31
12475;BME280;6302;42.624;23.334;2023-05-21T11:57:01;93012.66;;;20.60;78.24
12475;BME280;6302;42.624;23.334;2023-05-21T11:59:29;93027.88;;;20.63;79.21
12475;BME280;6302;42.624;23.334;2023-05-21T12:01:57;93020.44;;;20.58;76.91
12475;BME280;6302;42.624;23.334;2023-05-21T12:04:29;93024.25;;;20.51;74.58
12475;BME280;6302;42.624;23.334;2023-05-21T12:06:56;93019.94;;;20.45;77.40
12475;BME280;6302;42.624;23.334;2023-05-21T12:09:25;93019.66;;;20.43;78.64
12475;BME280;6302;42.624;23.334;2023-05-21T12:11:52;93013.81;;;20.44;79.51
12475;BME280;6302;42.624;23.334;2023-05-21T12:14:20;93012.34;;;20.43;78.62
12475;BME280;6302;42.624;23.334;2023-05-21T12:16:47;93013.38;;;20.46;79.54
12475;BME280;6302;42.624;23.334;2023-05-21T12:19:16;93017.44;;;20.41;79.97
12475;BME280;6302;42.624;23.334;2023-05-21T12:21:44;93017.44;;;20.41;82.58
12475;BME280;6302;42.624;23.334;2023-05-21T12:24:11;93014.28;;;20.43;83.98
12475;BME280;6302;42.624;23.334;2023-05-21T12:26:38;93016.50;;;20.44;85.69
12475;BME280;6302;42.624;23.334;2023-05-21T12:29:06;93016.34;;;20.48;86.17
12475;BME280;6302;42.624;23.334;2023-05-21T12:31:45;93016.81;;;20.46;85.51
12475;BME280;6302;42.624;23.334;2023-05-21T12:34:13;93017.25;;;20.45;83.22
12475;BME280;6302;42.624;23.334;2023-05-21T12:36:45;93012.78;;;20.42;81.13
12475;BME280;6302;42.624;23.334;2023-05-21T12:39:12;93011.88;;;20.45;79.60
12475;BME280;6302;42.624;23.334;2023-05-21T12:41:39;93001.25;;;20.27;81.05
12475;BME280;6302;42.624;23.334;2023-05-21T12:44:06;93005.47;;;20.19;83.05
12475;BME280;6302;42.624;23.334;2023-05-21T12:46:34;93012.03;;;20.18;86.03
12475;BME280;6302;42.624;23.334;2023-05-21T12:49:01;93008.91;;;20.19;87.95
12475;BME280;6302;42.624;23.334;2023-05-21T12:51:36;93006.38;;;20.16;90.14
12475;BME280;6302;42.624;23.334;2023-05-21T12:54:10;93002.22;;;20.15;88.63
12475;BME280;6302;42.624;23.334;2023-05-21T12:56:43;92994.16;;;20.15;91.02
12475;BME280;6302;42.624;23.334;2023-05-21T12:59:12;93000.53;;;20.17;93.29
12475;BME280;6302;42.624;23.334;2023-05-21T13:01:39;92992.91;;;20.16;95.46
12475;BME280;6302;42.624;23.334;2023-05-21T13:04:06;93001.91;;;20.12;92.88